Rechercher aéroport 
image banner adimage banner adimage banner ad
image banner ad

96CA - Warner Center Plaza One

Situé à Woodland Hills, United States

ICAO - 96CA, IATA -

Données fournies par Airmate  

Information générale

Coordonnées: N34°10'42" W118°36'1"
Élévation : 1133 feet MSL.
Variation magnétique : 14° East
Voir autres Aéroports à California

Données opérationnelles

Special qualification required
Heure actuelle UTC:
Heure actuelle locale:
Météo à : KVNY - Van Nuys ( 11 km )
METAR: KVNY 251551Z 15004KT 9SM CLR 22/16 A2999 RMK AO2 SLP149 T02220161
TAF: KVNY 251158Z 2512/2612 VRB03KT P6SM BKN150 FM251900 14010KT P6SM BKN120 FM260400 14006KT P6SM BKN120 FM260900 VRB03KT P6SM VCSH OVC100
Voir NOTAMs / SUP AIP / TFR affectant cet aéroport [VIEW]
Fréquences de communication: [VIEW]

Pistes:

Coordonnées de l'aéroport

Adresse: Woodland Hills United States

Vue satellite de 96CA